createdAt,value
2022-10-22T10:14:53.495Z,55.08
2022-10-22T10:15:57.616Z,54.82
2022-10-22T10:17:01.711Z,54.6
2022-10-22T10:18:05.794Z,54.19
2022-10-22T10:19:10.195Z,54.07
2022-10-22T10:20:14.304Z,54.82
2022-10-22T10:21:18.491Z,54.82
2022-10-22T10:22:22.589Z,54.74
2022-10-22T10:23:27.449Z,54.62
2022-10-22T10:24:31.548Z,54.68
2022-10-22T10:25:35.662Z,54.94
2022-10-22T10:26:39.875Z,54.69
2022-10-22T10:27:43.968Z,54.17
2022-10-22T10:28:48.096Z,53.38
2022-10-22T10:29:52.212Z,53.21
2022-10-22T10:30:56.414Z,53.07
2022-10-22T10:32:00.528Z,53.21
2022-10-22T10:33:04.608Z,53.02
2022-10-22T10:34:08.679Z,53.58
2022-10-22T10:35:12.765Z,53.7
2022-10-22T10:36:16.921Z,53.73
2022-10-22T10:37:21.069Z,54.28
2022-10-22T10:38:30.766Z,54.37
2022-10-22T10:39:34.871Z,54.06
2022-10-22T10:40:38.964Z,54.02
2022-10-22T10:41:43.110Z,53.24
2022-10-22T10:42:47.307Z,53.47
2022-10-22T10:43:51.399Z,53.77
2022-10-22T10:44:55.481Z,54.64
2022-10-22T10:45:59.635Z,54.18
2022-10-22T10:47:03.696Z,54.03
2022-10-22T10:48:07.815Z,54.74
2022-10-22T10:49:11.889Z,54.38
2022-10-22T10:50:15.979Z,54
2022-10-22T10:51:20.034Z,52.96
2022-10-22T10:52:24.115Z,52.65
2022-10-22T10:53:28.218Z,52.82
2022-10-22T10:54:32.525Z,52.74
2022-10-22T10:55:36.615Z,52.88
2022-10-22T10:56:41.347Z,52.8
2022-10-22T10:57:45.742Z,53.02
2022-10-22T10:58:49.847Z,53.06
2022-10-22T10:59:53.903Z,53.04
2022-10-22T11:00:58.031Z,53.03
2022-10-22T11:02:02.181Z,53.23
2022-10-22T11:03:06.303Z,53.09
2022-10-22T11:04:10.412Z,53.39
2022-10-22T11:05:14.520Z,53.93
2022-10-22T11:06:24.687Z,52.35
2022-10-22T11:07:36.737Z,52.86
2022-10-22T11:08:41.114Z,52.62
2022-10-22T11:09:45.265Z,52.63
2022-10-22T11:10:49.368Z,52.91
2022-10-22T11:11:53.478Z,53.12
2022-10-22T11:12:57.536Z,53.27
2022-10-22T11:14:01.625Z,53.09
2022-10-22T11:15:05.721Z,53.14
2022-10-22T11:16:09.812Z,52.83
2022-10-22T11:17:13.918Z,52.97
2022-10-22T11:18:18.013Z,53.08
2022-10-22T11:19:56.678Z,53.01
2022-10-22T11:21:03.239Z,53.39
2022-10-22T11:22:07.331Z,53.61
2022-10-22T11:23:27.183Z,54.51
2022-10-22T11:24:31.271Z,54.69
2022-10-22T11:25:35.387Z,55.13
2022-10-22T11:26:39.484Z,55.18
2022-10-22T11:27:44.757Z,55.47
2022-10-22T11:28:49.094Z,55.56
2022-10-22T11:29:53.172Z,55.82
2022-10-22T11:30:57.271Z,55.67
2022-10-22T11:32:01.365Z,55.49
2022-10-22T11:33:05.481Z,55.59
2022-10-22T11:34:35.457Z,55.61
2022-10-22T11:35:39.553Z,55.58
2022-10-22T11:36:43.654Z,55.5
2022-10-22T11:37:47.753Z,55.26
2022-10-22T11:38:51.854Z,55.36
2022-10-22T11:39:55.942Z,55.35
2022-10-22T11:41:00.220Z,55.46
2022-10-22T11:42:04.303Z,55.49
2022-10-22T11:43:08.370Z,55.65
2022-10-22T11:44:12.476Z,55.63
2022-10-22T11:45:16.603Z,55.69
2022-10-22T11:46:20.703Z,55.83
2022-10-22T11:47:24.805Z,56.01
2022-10-22T11:48:28.895Z,56.16
2022-10-22T11:49:33.003Z,56.1
2022-10-22T11:50:37.066Z,56.07
2022-10-22T11:51:41.155Z,56.1
2022-10-22T11:52:45.244Z,56.13
2022-10-22T11:53:49.407Z,56.15
2022-10-22T11:54:53.546Z,56.21
2022-10-22T11:55:57.682Z,56.07
2022-10-22T11:57:01.832Z,56.15
2022-10-22T11:58:06.002Z,56.29
2022-10-22T11:59:10.069Z,56.68
2022-10-22T12:00:14.171Z,56.74
2022-10-22T12:01:18.235Z,56.97
2022-10-22T12:02:22.378Z,56.92
2022-10-22T12:03:26.459Z,56.84
2022-10-22T12:04:30.711Z,56.87
2022-10-22T12:05:34.896Z,56.89
2022-10-22T12:06:44.793Z,56.89
2022-10-22T12:07:48.886Z,56.86
2022-10-22T12:08:56.550Z,56.88
2022-10-22T12:10:03.429Z,56.76
2022-10-22T12:11:07.532Z,56.73
2022-10-22T12:12:11.661Z,56.77
2022-10-22T12:13:15.779Z,56.83
2022-10-22T12:14:50.487Z,56.91
2022-10-22T12:15:57.643Z,56.97
2022-10-22T12:17:02.189Z,57.13
2022-10-22T12:18:09.163Z,57.09
2022-10-22T12:19:13.366Z,57.02
2022-10-22T12:20:17.443Z,57.11
2022-10-22T12:21:21.539Z,57.12
2022-10-22T12:22:25.628Z,57.3
2022-10-22T12:23:29.953Z,57.25
2022-10-22T12:24:36.912Z,57.37
2022-10-22T12:25:42.998Z,57.3
2022-10-22T12:26:47.098Z,57.31
2022-10-22T12:27:53.805Z,57.3
2022-10-22T12:28:57.901Z,57.29
2022-10-22T12:30:03.760Z,57.35
2022-10-22T12:31:10.397Z,57.39
2022-10-22T12:32:14.473Z,57.42
2022-10-22T12:33:18.586Z,57.46
2022-10-22T12:34:22.711Z,57.42
2022-10-22T12:35:28.612Z,57.47
2022-10-22T12:36:32.724Z,57.52
2022-10-22T12:37:36.807Z,57.57
2022-10-22T12:38:40.906Z,57.57
2022-10-22T12:39:45.012Z,57.56
2022-10-22T12:40:51.120Z,57.57
2022-10-22T12:41:55.237Z,57.6
2022-10-22T12:42:59.575Z,57.66
2022-10-22T12:44:03.954Z,57.75
2022-10-22T12:45:08.035Z,57.71
2022-10-22T12:46:12.131Z,57.72
2022-10-22T12:47:16.217Z,57.93
2022-10-22T12:48:20.307Z,57.78
2022-10-22T12:49:24.415Z,57.78
2022-10-22T12:50:28.552Z,57.13
2022-10-22T12:52:42.201Z,56.78
2022-10-22T12:53:46.568Z,56.7
2022-10-22T12:54:50.639Z,56.77
2022-10-22T12:55:54.746Z,56.92
2022-10-22T12:56:58.879Z,56.9
2022-10-22T12:58:02.985Z,57
2022-10-22T12:59:07.058Z,57.04
2022-10-22T13:00:11.160Z,57.09
2022-10-22T13:01:15.616Z,57.09
2022-10-22T13:02:19.719Z,57.07
2022-10-22T13:03:23.848Z,57.09
2022-10-22T13:04:27.936Z,57.04
2022-10-22T13:05:32.041Z,57.02
2022-10-22T13:06:36.138Z,57.02
2022-10-22T13:07:40.222Z,57.04
2022-10-22T13:08:44.439Z,57.03
2022-10-22T13:09:48.555Z,57.09
2022-10-22T13:10:52.635Z,57.11
2022-10-22T13:11:56.731Z,57.32
2022-10-22T13:13:00.819Z,57.36
2022-10-22T13:14:05.048Z,57.65
2022-10-22T13:15:09.159Z,57.71
2022-10-22T13:16:13.246Z,57.72
2022-10-22T13:17:17.336Z,57.85
2022-10-22T13:18:21.454Z,57.88
2022-10-22T13:19:25.646Z,57.84
2022-10-22T13:20:34.576Z,57.83
2022-10-22T13:21:38.978Z,57.85
2022-10-22T13:22:43.075Z,57.83
2022-10-22T13:23:47.187Z,57.78
2022-10-22T13:24:51.814Z,57.91
2022-10-22T13:25:55.929Z,57.84
2022-10-22T13:27:00.019Z,57.91
2022-10-22T13:28:04.099Z,58.13
2022-10-22T13:29:08.206Z,58.21
2022-10-22T13:30:12.300Z,58.18
2022-10-22T13:31:16.384Z,58.23
2022-10-22T13:32:20.532Z,58.2
2022-10-22T13:33:24.590Z,58.2
2022-10-22T13:34:28.692Z,58.16
2022-10-22T13:35:32.764Z,58.13
2022-10-22T13:36:36.839Z,58.19
2022-10-22T13:37:42.048Z,58.16
2022-10-22T13:38:46.348Z,58.18
2022-10-22T13:39:50.462Z,58.18
2022-10-22T13:40:54.643Z,58.16
2022-10-22T13:41:58.752Z,58.18
2022-10-22T13:43:02.907Z,58.2
2022-10-22T13:44:09.495Z,58.14
2022-10-22T13:45:13.643Z,58.19
2022-10-22T13:46:17.760Z,58.18
2022-10-22T13:47:24.574Z,58.2
2022-10-22T13:48:28.698Z,58.26
2022-10-22T13:49:32.804Z,58.29
2022-10-22T13:50:36.924Z,58.38
2022-10-22T13:51:41.019Z,58.34
2022-10-22T13:52:45.686Z,58.3
2022-10-22T13:53:49.952Z,57.45
2022-10-22T13:54:54.104Z,57.84
2022-10-22T13:55:58.220Z,56.27
2022-10-22T13:57:02.375Z,56.16
2022-10-22T13:58:06.686Z,55.94
2022-10-22T13:59:10.852Z,56.5
2022-10-22T14:00:14.976Z,56.65
2022-10-22T14:01:19.265Z,56.77
2022-10-22T14:02:23.397Z,56.63
2022-10-22T14:03:27.524Z,56.73
2022-10-22T14:04:31.645Z,56.5
2022-10-22T14:05:35.737Z,56.35
2022-10-22T14:06:39.855Z,56.55
2022-10-22T14:07:44.981Z,56.77
2022-10-22T14:08:49.253Z,56.69
2022-10-22T14:09:53.395Z,56.86
2022-10-22T14:10:57.520Z,57.06
2022-10-22T14:12:01.624Z,57.14
2022-10-22T14:13:05.744Z,57.26
2022-10-22T14:14:09.967Z,57.47
2022-10-22T14:15:14.071Z,57.81
2022-10-22T14:16:18.172Z,58.09
2022-10-22T14:17:22.245Z,58.04
2022-10-22T14:18:26.402Z,57.92
2022-10-22T14:19:30.535Z,57.83
2022-10-22T14:20:34.713Z,57.69
2022-10-22T14:21:38.912Z,57.81
2022-10-22T14:22:43.024Z,57.75
2022-10-22T14:23:47.133Z,57.41
2022-10-22T14:24:51.236Z,57.22
2022-10-22T14:25:55.341Z,57.52
2022-10-22T14:26:59.426Z,57.64
2022-10-22T14:28:03.521Z,57.54
2022-10-22T14:29:13.058Z,57.43
2022-10-22T14:30:17.133Z,57.62
2022-10-22T14:31:21.243Z,57.86
2022-10-22T14:32:25.342Z,57.63
2022-10-22T14:33:33.570Z,58.09
2022-10-22T14:34:37.680Z,58.28
2022-10-22T14:35:41.782Z,58.29
2022-10-22T14:36:46.267Z,58.18
2022-10-22T14:37:50.363Z,58.29
2022-10-22T14:38:54.474Z,58.31
2022-10-22T14:41:02.713Z,58.38
2022-10-22T14:42:06.810Z,58.37
2022-10-22T14:43:10.905Z,58.35
2022-10-22T14:44:15.559Z,58.03
2022-10-22T14:45:19.633Z,58
2022-10-22T14:46:23.710Z,58.08
2022-10-22T14:47:27.804Z,58.18
2022-10-22T14:48:31.908Z,58.36
2022-10-22T14:49:35.998Z,58.61
2022-10-22T14:50:40.083Z,58.9
2022-10-22T14:51:44.153Z,58.96
2022-10-22T14:52:48.237Z,58.75
2022-10-22T14:53:52.354Z,58.84
2022-10-22T14:54:56.430Z,59.04
2022-10-22T14:56:00.560Z,59.01
2022-10-22T14:57:04.667Z,59.01
2022-10-22T14:58:08.770Z,59.12
2022-10-22T14:59:13.098Z,59.06
2022-10-22T15:00:17.180Z,59.14
2022-10-22T15:01:21.310Z,59.29
2022-10-22T15:02:25.515Z,59.31
2022-10-22T15:03:29.910Z,59.35
2022-10-22T15:04:33.993Z,59.4
2022-10-22T15:05:38.057Z,59.43
2022-10-22T15:06:42.148Z,59.41
2022-10-22T15:07:46.573Z,59.36
2022-10-22T15:08:50.924Z,59.45
2022-10-22T15:09:55.036Z,59.53
2022-10-22T15:10:59.121Z,59.49
2022-10-22T15:12:03.253Z,59.54
2022-10-22T15:13:07.658Z,59.52
2022-10-22T15:14:11.803Z,59.55
2022-10-22T15:15:20.591Z,59.68
2022-10-22T15:16:26.859Z,59.6
2022-10-22T15:17:30.916Z,59.55
2022-10-22T15:18:37.517Z,59.63
2022-10-22T15:19:47.196Z,59.48
2022-10-22T15:20:51.358Z,59.53
2022-10-22T15:21:55.498Z,59.54
2022-10-22T15:22:59.757Z,59.61
2022-10-22T15:24:03.895Z,59.52
2022-10-22T15:25:07.984Z,59.5
2022-10-22T15:26:12.087Z,59.61
2022-10-22T15:27:16.273Z,59.61
2022-10-22T15:28:20.346Z,59.66
2022-10-22T15:29:24.560Z,59.41
2022-10-22T15:30:30.449Z,59.58
2022-10-22T15:31:34.573Z,59.51
2022-10-22T15:32:38.950Z,59.61
2022-10-22T15:33:43.529Z,59.56
2022-10-22T15:34:48.290Z,59.71
2022-10-22T15:35:55.208Z,59.66
2022-10-22T15:36:59.345Z,59.7
2022-10-22T15:38:03.476Z,59.58
2022-10-22T15:39:07.574Z,59.57
2022-10-22T15:40:11.686Z,59.58
2022-10-22T15:41:15.784Z,59.65
2022-10-22T15:42:19.874Z,59.59
2022-10-22T15:43:23.958Z,59.57
2022-10-22T15:44:28.035Z,59.51
2022-10-22T15:45:32.122Z,59.53
2022-10-22T15:46:37.482Z,59.56
2022-10-22T15:47:45.020Z,59.53
2022-10-22T15:48:50.246Z,59.58
2022-10-22T15:49:54.391Z,58.23
2022-10-22T15:50:58.527Z,57.5
2022-10-22T15:52:02.639Z,57.56
2022-10-22T15:53:06.777Z,57.99
2022-10-22T15:54:12.155Z,56.95
2022-10-22T15:55:16.275Z,56.8
2022-10-22T15:56:20.378Z,57.99
2022-10-22T15:57:24.479Z,57.57
2022-10-22T15:58:28.553Z,57.52
2022-10-22T15:59:33.124Z,57.72
2022-10-22T16:00:37.452Z,58.02
2022-10-22T16:01:41.655Z,58.43
2022-10-22T16:02:46.028Z,58.6
2022-10-22T16:03:50.149Z,58.61
2022-10-22T16:04:54.241Z,58.87
2022-10-22T16:05:58.328Z,58.8
2022-10-22T16:07:02.446Z,58.94
2022-10-22T16:08:06.568Z,58.74
2022-10-22T16:09:11.005Z,58.62
2022-10-22T16:10:15.201Z,58.61
2022-10-22T16:11:19.316Z,58.47
2022-10-22T16:12:23.423Z,58.33
2022-10-22T16:13:27.547Z,58.16
2022-10-22T16:14:31.676Z,58.08
2022-10-22T16:15:35.791Z,58
2022-10-22T16:16:42.734Z,57.87
2022-10-22T16:17:46.946Z,57.87
2022-10-22T16:18:51.048Z,57.79
2022-10-22T16:19:58.059Z,57.75
2022-10-22T16:21:02.162Z,57.78
2022-10-22T16:22:06.260Z,57.81
2022-10-22T16:23:10.362Z,57.84
2022-10-22T16:24:14.448Z,57.88
2022-10-22T16:25:18.532Z,57.93
2022-10-22T16:26:22.666Z,57.97
2022-10-22T16:27:29.894Z,57.95
2022-10-22T16:28:35.080Z,57.98
2022-10-22T16:29:39.161Z,58.06
2022-10-22T16:30:43.255Z,58.08
2022-10-22T16:31:50.144Z,58.13
2022-10-22T16:32:54.239Z,58.19
2022-10-22T16:33:58.342Z,58.23
2022-10-22T16:35:02.498Z,58.47
2022-10-22T16:36:06.605Z,58.09
2022-10-22T16:37:11.088Z,57.9
2022-10-22T16:38:16.945Z,58.29
2022-10-22T16:39:21.042Z,58.12
2022-10-22T16:40:25.133Z,57.9
2022-10-22T16:41:29.182Z,57.75
2022-10-22T16:42:33.286Z,57.72
2022-10-22T16:43:37.358Z,57.74
2022-10-22T16:44:41.428Z,57.72
2022-10-22T16:45:45.499Z,57.76
2022-10-22T16:46:49.611Z,57.98
2022-10-22T16:47:53.705Z,58.25
2022-10-22T16:48:57.818Z,58.36
2022-10-22T16:50:01.978Z,58.23
2022-10-22T16:51:06.057Z,58.64
2022-10-22T16:52:10.192Z,58.51
2022-10-22T16:53:14.329Z,58.41
2022-10-22T16:54:18.427Z,58.32
2022-10-22T16:55:22.533Z,58.11
2022-10-22T16:56:26.629Z,57.85
2022-10-22T16:57:30.722Z,57.65
2022-10-22T16:58:34.810Z,57.39
2022-10-22T16:59:38.898Z,57.14
2022-10-22T17:00:43.195Z,56.93
2022-10-22T17:01:47.290Z,56.79
2022-10-22T17:02:51.382Z,56.81
2022-10-22T17:03:55.500Z,56.94
2022-10-22T17:04:59.578Z,57.31
2022-10-22T17:06:03.692Z,57.31
2022-10-22T17:07:07.779Z,57.5
2022-10-22T17:08:11.864Z,57.39
2022-10-22T17:09:16.346Z,57.41
2022-10-22T17:10:20.751Z,57.4
2022-10-22T17:11:24.879Z,57.39
2022-10-22T17:12:28.952Z,57.43
2022-10-22T17:13:33.087Z,57.42
2022-10-22T17:14:37.352Z,57.34
2022-10-22T17:15:41.512Z,57.39
2022-10-22T17:16:45.630Z,57.45
2022-10-22T17:17:49.826Z,57.59
2022-10-22T17:18:53.943Z,57.82
2022-10-22T17:19:58.074Z,57.71
2022-10-22T17:21:04.906Z,59.85
2022-10-22T17:22:08.995Z,58.94
2022-10-22T17:23:13.071Z,60.77
2022-10-22T17:24:17.206Z,60.69
2022-10-22T17:25:21.707Z,60.72
2022-10-22T17:26:25.813Z,61.06
2022-10-22T17:27:30.395Z,61.82
2022-10-22T17:28:34.807Z,61.67
2022-10-22T17:29:38.913Z,62.59
2022-10-22T17:30:43.059Z,61.93
2022-10-22T17:31:47.202Z,62.27
2022-10-22T17:32:51.297Z,62.27
2022-10-22T17:33:55.405Z,62.53
2022-10-22T17:34:59.532Z,62.42
2022-10-22T17:36:03.636Z,63.76
2022-10-22T17:37:07.967Z,62.76
2022-10-22T17:38:12.097Z,63.02
2022-10-22T17:39:16.180Z,63.18
2022-10-22T17:40:21.693Z,62.86
2022-10-22T17:41:25.920Z,63.22
2022-10-22T17:42:30.116Z,63.52
2022-10-22T17:43:34.385Z,63.03
2022-10-22T17:44:38.495Z,63.3
2022-10-22T17:45:42.575Z,62.81
2022-10-22T17:46:46.652Z,62.8
2022-10-22T17:47:50.730Z,62.81
2022-10-22T17:48:54.847Z,62.91
2022-10-22T17:50:00.609Z,62.41
2022-10-22T17:51:04.697Z,62.25
2022-10-22T17:52:08.802Z,62.16
2022-10-22T17:53:12.890Z,62.19
2022-10-22T17:54:16.995Z,62.47
2022-10-22T17:55:21.088Z,61.96
2022-10-22T17:56:25.173Z,61.84
2022-10-22T17:57:29.306Z,61.68
2022-10-22T17:58:33.430Z,61.43
2022-10-22T17:59:37.514Z,61.93
2022-10-22T18:00:41.911Z,61.58
2022-10-22T18:01:46.110Z,61.45
2022-10-22T18:02:50.291Z,61.33
2022-10-22T18:03:54.386Z,61.13
2022-10-22T18:04:58.469Z,61.09
2022-10-22T18:06:02.581Z,61.02
2022-10-22T18:07:06.700Z,60.92
2022-10-22T18:08:10.819Z,60.76
2022-10-22T18:09:19.814Z,61.01
2022-10-22T18:10:23.892Z,61.04
2022-10-22T18:11:27.998Z,61.52
2022-10-22T18:12:32.089Z,61.35
2022-10-22T18:13:36.185Z,61.01
2022-10-22T18:14:40.285Z,60.77
2022-10-22T18:15:44.376Z,60.76
2022-10-22T18:16:48.504Z,61.13
2022-10-22T18:17:52.586Z,61.24
2022-10-22T18:18:56.694Z,61.37
2022-10-22T18:20:00.770Z,61.22
2022-10-22T18:21:04.883Z,61.48
2022-10-22T18:22:08.948Z,61.44
2022-10-22T18:23:13.020Z,61.42
2022-10-22T18:24:17.114Z,61.84
2022-10-22T18:25:21.289Z,61.62
2022-10-22T18:26:28.700Z,61.61
2022-10-22T18:27:32.797Z,61.51
2022-10-22T18:28:36.917Z,61.46
2022-10-22T18:29:41.094Z,61.48
2022-10-22T18:30:45.195Z,61.47
2022-10-22T18:31:50.992Z,61.52
2022-10-22T18:32:55.070Z,61.62
2022-10-22T18:33:59.185Z,61.42
2022-10-22T18:35:03.295Z,61.37
2022-10-22T18:36:07.417Z,61.35
2022-10-22T18:37:11.574Z,61.32
2022-10-22T18:38:15.664Z,61.27
2022-10-22T18:39:19.770Z,61.3
2022-10-22T18:40:23.909Z,61.29
2022-10-22T18:41:28.018Z,61.46
2022-10-22T18:42:39.624Z,61.35
2022-10-22T18:43:44.049Z,61.37
2022-10-22T18:44:48.118Z,61.39
2022-10-22T18:45:52.259Z,61.41
2022-10-22T18:46:56.750Z,61.45
2022-10-22T18:48:00.902Z,61.49
2022-10-22T18:49:05.002Z,61.55
2022-10-22T18:50:09.132Z,61.5
2022-10-22T18:51:13.232Z,61.52
2022-10-22T18:52:17.334Z,61.51
2022-10-22T18:53:21.449Z,61.39
2022-10-22T18:54:26.709Z,61.38
2022-10-22T18:55:30.827Z,61.3
2022-10-22T18:56:34.939Z,61.3
2022-10-22T18:57:41.331Z,61.31
2022-10-22T18:58:45.790Z,61.31
2022-10-22T18:59:49.888Z,61.36
2022-10-22T19:00:56.728Z,61.41
2022-10-22T19:02:00.986Z,61.45
2022-10-22T19:03:05.117Z,61.48
2022-10-22T19:04:09.205Z,61.44
2022-10-22T19:05:13.295Z,61.76
2022-10-22T19:06:17.406Z,61.81
2022-10-22T19:07:21.500Z,61.45
2022-10-22T19:08:25.597Z,61.43
2022-10-22T19:09:29.731Z,61.54
2022-10-22T19:10:33.809Z,61.44
2022-10-22T19:11:38.037Z,61.46
2022-10-22T19:12:42.128Z,61.37
2022-10-22T19:13:46.243Z,61.32
2022-10-22T19:14:50.365Z,61.25
2022-10-22T19:15:54.471Z,61.25
2022-10-22T19:16:58.591Z,61.3
2022-10-22T19:18:02.730Z,61.22
2022-10-22T19:19:06.817Z,61.25
2022-10-22T19:20:10.928Z,61.17
2022-10-22T19:21:15.018Z,61.18
2022-10-22T19:22:19.147Z,61.25
2022-10-22T19:23:23.230Z,61.24
2022-10-22T19:24:27.312Z,62.66
2022-10-22T19:25:31.397Z,61.82
2022-10-22T19:26:35.472Z,61.56
2022-10-22T19:27:40.324Z,61.54
2022-10-22T19:28:44.767Z,61.62
2022-10-22T19:29:48.854Z,61.54
2022-10-22T19:30:52.975Z,61.59
2022-10-22T19:31:57.237Z,61.58
2022-10-22T19:33:01.353Z,61.65
2022-10-22T19:34:05.442Z,61.69
2022-10-22T19:35:09.563Z,61.69
2022-10-22T19:36:13.644Z,61.77
2022-10-22T19:37:17.728Z,61.72
2022-10-22T19:38:21.828Z,61.72
2022-10-22T19:39:25.924Z,61.75
2022-10-22T19:40:30.078Z,61.68
2022-10-22T19:41:34.158Z,61.65
2022-10-22T19:42:38.270Z,61.6
2022-10-22T19:43:42.380Z,61.64
2022-10-22T19:44:46.504Z,61.5
2022-10-22T19:45:50.600Z,61.62
2022-10-22T19:46:54.711Z,61.65
2022-10-22T19:47:58.763Z,61.61
2022-10-22T19:49:02.912Z,61.64
2022-10-22T19:50:07.014Z,61.67
2022-10-22T19:51:11.085Z,61.73
2022-10-22T19:52:15.209Z,61.73
2022-10-22T19:53:19.315Z,61.84
2022-10-22T19:54:23.403Z,61.89
2022-10-22T19:55:27.482Z,61.97
2022-10-22T19:56:31.588Z,62.03
2022-10-22T19:57:35.688Z,62.04
2022-10-22T19:58:39.768Z,62.08
2022-10-22T19:59:43.863Z,62.05
2022-10-22T20:00:48.119Z,62.02
2022-10-22T20:01:52.210Z,61.96
2022-10-22T20:02:56.321Z,61.87
2022-10-22T20:04:00.588Z,61.87
2022-10-22T20:05:05.010Z,61.79
2022-10-22T20:06:09.103Z,61.85
2022-10-22T20:07:13.197Z,61.86
2022-10-22T20:08:17.287Z,61.85
2022-10-22T20:09:21.618Z,61.87
2022-10-22T20:10:25.759Z,61.9
2022-10-22T20:11:29.825Z,61.95
2022-10-22T20:12:33.889Z,61.88
2022-10-22T20:14:42.246Z,61.99
2022-10-22T20:15:46.348Z,62.05
2022-10-22T20:16:50.444Z,62.12
2022-10-22T20:17:54.532Z,62.11
2022-10-22T20:18:58.694Z,62.13
2022-10-22T20:20:02.785Z,62.18
2022-10-22T20:21:06.987Z,62.2
2022-10-22T20:22:16.270Z,62.18
2022-10-22T20:23:22.797Z,62.04
2022-10-22T20:24:26.890Z,62.04
2022-10-22T20:25:30.982Z,61.93
2022-10-22T20:26:35.118Z,61.89
2022-10-22T20:27:39.203Z,61.93
2022-10-22T20:28:43.281Z,62.28
2022-10-22T20:29:47.399Z,62.13
2022-10-22T20:30:51.499Z,62.27
2022-10-22T20:31:55.610Z,62.08
2022-10-22T20:32:59.717Z,62.05
2022-10-22T20:34:03.884Z,62.16
2022-10-22T20:35:07.969Z,62.09
2022-10-22T20:36:12.075Z,62.18
2022-10-22T20:37:16.173Z,62.19
2022-10-22T20:38:20.336Z,62.26
2022-10-22T20:39:24.446Z,62.39
2022-10-22T20:40:28.569Z,62.39
2022-10-22T20:41:32.705Z,62.36
2022-10-22T20:42:36.815Z,62.36
2022-10-22T20:43:40.928Z,62.31
2022-10-22T20:44:45.015Z,62.22
2022-10-22T20:45:49.094Z,62.13
2022-10-22T20:46:53.470Z,62.19
2022-10-22T20:48:04.688Z,62.24
2022-10-22T20:49:08.954Z,62.09
2022-10-22T20:50:13.019Z,62.03
2022-10-22T20:51:17.179Z,62.02
2022-10-22T20:52:21.238Z,62.02
2022-10-22T20:53:25.333Z,62.04
2022-10-22T20:54:29.411Z,62.04
2022-10-22T20:55:33.513Z,62.1
2022-10-22T20:56:37.574Z,62.13
2022-10-22T20:57:42.681Z,62.11
2022-10-22T20:58:47.045Z,62.13
2022-10-22T20:59:51.130Z,62.34
2022-10-22T21:00:55.499Z,62.16
2022-10-22T21:01:59.657Z,62.21
2022-10-22T21:03:03.737Z,62.24
2022-10-22T21:04:07.868Z,62.23
2022-10-22T21:05:11.978Z,62.12
2022-10-22T21:06:16.056Z,62.04
2022-10-22T21:07:20.142Z,61.94
2022-10-22T21:08:24.215Z,61.92
2022-10-22T21:09:28.363Z,61.88
2022-10-22T21:10:34.561Z,61.86
2022-10-22T21:11:38.647Z,61.84
2022-10-22T21:12:43.687Z,61.84
2022-10-22T21:13:48.133Z,61.91
2022-10-22T21:14:52.228Z,61.86
2022-10-22T21:15:56.296Z,61.83
2022-10-22T21:17:00.454Z,61.83
2022-10-22T21:18:04.534Z,61.83
2022-10-22T21:19:08.650Z,61.82
2022-10-22T21:20:12.767Z,61.84
2022-10-22T21:21:16.935Z,61.87
2022-10-22T21:22:21.038Z,61.9
2022-10-22T21:23:25.151Z,61.87
2022-10-22T21:24:29.261Z,61.82
2022-10-22T21:25:33.394Z,61.83
2022-10-22T21:26:37.456Z,61.81
2022-10-22T21:27:41.571Z,61.73
2022-10-22T21:28:45.641Z,61.63
2022-10-22T21:29:49.755Z,61.56
2022-10-22T21:30:53.852Z,61.5
2022-10-22T21:31:57.927Z,61.46
2022-10-22T21:33:01.996Z,61.42
2022-10-22T21:34:06.068Z,61.33
2022-10-22T21:35:10.164Z,61.29
2022-10-22T21:36:15.042Z,61.27
2022-10-22T21:37:20.262Z,61.23
2022-10-22T21:38:24.373Z,61.26
2022-10-22T21:39:28.475Z,61.25
2022-10-22T21:40:32.644Z,61.26
2022-10-22T21:41:36.736Z,61.24
2022-10-22T21:42:40.818Z,61.26
2022-10-22T21:43:44.910Z,61.3
2022-10-22T21:44:48.973Z,61.3
2022-10-22T21:45:53.101Z,61.32
2022-10-22T21:46:57.213Z,61.38
2022-10-22T21:48:01.317Z,61.39
2022-10-22T21:49:05.416Z,61.48
2022-10-22T21:50:09.526Z,61.32
2022-10-22T21:51:13.616Z,61.24
2022-10-22T21:52:17.694Z,61.17
2022-10-22T21:53:21.757Z,61.12
2022-10-22T21:54:25.868Z,61.17
2022-10-22T21:55:30.006Z,61.11
2022-10-22T21:56:34.076Z,61.14
2022-10-22T21:57:38.176Z,61.14
2022-10-22T21:58:42.264Z,61.38
2022-10-22T21:59:46.438Z,61.18
2022-10-22T22:00:50.708Z,61.23
2022-10-22T22:01:54.918Z,61.23
2022-10-22T22:02:59.076Z,61.28
2022-10-22T22:04:03.190Z,61.28
2022-10-22T22:05:07.287Z,61.31
2022-10-22T22:06:11.606Z,61.33
2022-10-22T22:07:15.713Z,61.55
2022-10-22T22:08:19.813Z,61.52
2022-10-22T22:09:24.175Z,61.42
2022-10-22T22:10:28.292Z,61.41
2022-10-22T22:11:32.356Z,61.46
2022-10-22T22:12:36.428Z,61.47
2022-10-22T22:13:40.544Z,61.48
2022-10-22T22:14:44.677Z,61.55
2022-10-22T22:15:48.760Z,61.61
2022-10-22T22:16:52.851Z,61.58
2022-10-22T22:17:56.936Z,61.63
2022-10-22T22:19:01.366Z,61.71
2022-10-22T22:20:05.563Z,61.72
2022-10-22T22:21:09.628Z,61.76
2022-10-22T22:22:13.760Z,61.79
2022-10-22T22:23:17.832Z,61.77
2022-10-22T22:24:21.916Z,61.8
2022-10-22T22:25:26.017Z,61.78
2022-10-22T22:26:31.692Z,61.81
2022-10-22T22:27:35.807Z,61.75
2022-10-22T22:28:39.920Z,61.91
2022-10-22T22:29:44.031Z,62.01
2022-10-22T22:30:48.129Z,62.12
2022-10-22T22:31:52.214Z,61.97
2022-10-22T22:32:56.329Z,62
2022-10-22T22:34:00.422Z,62.02
2022-10-22T22:35:04.550Z,62.07
2022-10-22T22:36:08.628Z,62.16
2022-10-22T22:37:12.720Z,62.07
2022-10-22T22:38:16.767Z,61.99
2022-10-22T22:39:20.854Z,62.08
2022-10-22T22:40:24.929Z,62.16
2022-10-22T22:41:28.989Z,62.13
2022-10-22T22:42:33.082Z,62.12
2022-10-22T22:43:37.155Z,62.22
2022-10-22T22:44:41.252Z,62.19
2022-10-22T22:45:45.338Z,62.39
2022-10-22T22:46:49.433Z,62.31
2022-10-22T22:47:53.517Z,62.32
2022-10-22T22:48:57.598Z,62.43
2022-10-22T22:50:01.685Z,62.35
2022-10-22T22:51:05.787Z,62.46
2022-10-22T22:52:10.138Z,62.57
2022-10-22T22:53:14.207Z,62.52
2022-10-22T22:54:18.301Z,62.57
2022-10-22T22:55:22.376Z,62.35
2022-10-22T22:56:26.494Z,62.4
2022-10-22T22:57:30.582Z,62.78
2022-10-22T22:58:34.665Z,62.79
2022-10-22T22:59:38.715Z,62.58
2022-10-22T23:00:42.792Z,62.6
2022-10-22T23:01:47.072Z,62.79
2022-10-22T23:02:51.187Z,62.7
2022-10-22T23:03:55.257Z,62.75
2022-10-22T23:04:59.305Z,62.7
2022-10-22T23:06:03.405Z,62.5
2022-10-22T23:07:07.539Z,62.37
2022-10-22T23:08:11.857Z,62.5
2022-10-22T23:09:16.487Z,62.67
2022-10-22T23:10:20.655Z,62.33
2022-10-22T23:11:24.731Z,62.35
2022-10-22T23:12:28.811Z,62.47
2022-10-22T23:13:32.897Z,62.5
2022-10-22T23:14:37.011Z,62.49
2022-10-22T23:15:41.107Z,62.41
2022-10-22T23:16:45.187Z,62.52
2022-10-22T23:17:49.278Z,62.65
2022-10-22T23:18:53.365Z,62.6
2022-10-22T23:19:57.455Z,62.41
2022-10-22T23:21:01.526Z,62.46
2022-10-22T23:22:05.628Z,62.38
2022-10-22T23:23:09.703Z,62.54
2022-10-22T23:24:13.882Z,62.59
2022-10-22T23:25:17.958Z,62.54
2022-10-22T23:26:22.010Z,62.53
2022-10-22T23:27:26.090Z,62.5
2022-10-22T23:28:30.210Z,62.59
2022-10-22T23:29:34.288Z,62.35
2022-10-22T23:30:38.367Z,62.66
2022-10-22T23:31:42.524Z,62.33
2022-10-22T23:32:46.595Z,61.73
2022-10-22T23:33:50.698Z,61.12
2022-10-22T23:34:54.839Z,61.23
2022-10-22T23:35:58.918Z,60.96
2022-10-22T23:37:03.001Z,61.4
2022-10-22T23:38:07.088Z,61.05
2022-10-22T23:39:11.242Z,60.84
2022-10-22T23:40:15.408Z,60.72
2022-10-22T23:41:19.457Z,61
2022-10-22T23:42:23.555Z,61.37
2022-10-22T23:43:27.651Z,61.42
2022-10-22T23:44:31.753Z,61.06
2022-10-22T23:45:35.833Z,61.14
2022-10-22T23:46:39.931Z,61.32
2022-10-22T23:47:45.231Z,61.09
2022-10-22T23:48:49.322Z,60.86
2022-10-22T23:49:53.391Z,61.51
2022-10-22T23:50:57.516Z,61.46
2022-10-22T23:52:01.597Z,61.57
2022-10-22T23:53:05.932Z,61.25
2022-10-22T23:54:10.099Z,61.49
2022-10-22T23:55:14.216Z,61.88
2022-10-22T23:56:18.318Z,62.02
2022-10-22T23:57:22.418Z,62.15
2022-10-22T23:58:26.614Z,61.56
2022-10-22T23:59:30.728Z,61.26
